Time;durP1;ratioP1;P1;durP2;ratioP2;P2;SDS_P1;SDS_P2;PMS_P1;PMS_P2;Temp;Humidity;BMP_temperature;BMP_pressure;BME280_temperature;BME280_humidity;BME280_pressure;Samples;Min_cycle;Max_cycle;Signal;HPM_P1;HPM_P2
2023/08/03 00:00:15;;;;;;;2.50;1.20;;;;;;;19.09;100.00;95496.50;5062192;28;20207;-63
2023/08/03 00:02:43;;;;;;;2.90;1.35;;;;;;;19.07;100.00;95498.56;5050135;28;20227;-62
2023/08/03 00:05:09;;;;;;;2.65;1.42;;;;;;;19.11;100.00;95496.25;5046703;28;20231;-63
2023/08/03 00:07:36;;;;;;;2.42;1.30;;;;;;;19.11;100.00;95507.81;5045250;28;20207;-62
2023/08/03 00:10:03;;;;;;;2.88;1.52;;;;;;;19.07;100.00;95495.06;5039406;28;20218;-63
2023/08/03 00:12:29;;;;;;;2.70;1.90;;;;;;;19.10;100.00;95486.56;5042039;28;20223;-62
2023/08/03 00:14:56;;;;;;;1.40;1.30;;;;;;;19.09;100.00;95506.41;5046120;28;20223;-62
2023/08/03 00:17:22;;;;;;;2.03;1.40;;;;;;;19.06;100.00;95504.19;5036945;28;20294;-63
2023/08/03 00:19:50;;;;;;;1.92;1.58;;;;;;;19.04;100.00;95503.56;5039628;28;20207;-63
2023/08/03 00:22:17;;;;;;;1.60;1.50;;;;;;;18.93;100.00;95498.94;5049560;28;20224;-62
2023/08/03 00:24:43;;;;;;;1.75;1.58;;;;;;;18.94;100.00;95487.19;5046247;28;20199;-62
2023/08/03 00:27:09;;;;;;;5.50;1.70;;;;;;;18.96;100.00;95493.13;5039686;28;20239;-63
2023/08/03 00:29:36;;;;;;;2.80;1.73;;;;;;;18.93;100.00;95489.03;5044957;28;20203;-63
2023/08/03 00:32:02;;;;;;;1.83;1.30;;;;;;;18.87;100.00;95490.75;5039715;28;20207;-62
2023/08/03 00:34:29;;;;;;;2.05;1.85;;;;;;;18.92;100.00;95476.69;5048735;28;20207;-63
2023/08/03 00:36:57;;;;;;;2.30;1.58;;;;;;;18.95;100.00;95486.16;5052995;28;20208;-63
2023/08/03 00:39:24;;;;;;;2.97;1.45;;;;;;;18.93;100.00;95493.56;5049842;28;20218;-64
2023/08/03 00:41:51;;;;;;;1.58;1.33;;;;;;;18.88;100.00;95484.34;5041048;28;20588;-62
2023/08/03 00:44:18;;;;;;;2.60;1.50;;;;;;;18.94;100.00;95485.34;5044000;28;20219;-64
2023/08/03 00:46:44;;;;;;;1.38;1.20;;;;;;;18.91;100.00;95484.97;5035145;28;20203;-62
2023/08/03 00:49:11;;;;;;;2.83;1.40;;;;;;;18.91;100.00;95495.69;5036173;28;20219;-62
2023/08/03 00:51:38;;;;;;;2.58;1.83;;;;;;;18.91;100.00;95482.28;5045839;28;20216;-62
2023/08/03 00:54:07;;;;;;;2.45;1.58;;;;;;;18.88;100.00;95500.41;5045871;28;20198;-64
2023/08/03 00:56:33;;;;;;;2.10;1.92;;;;;;;18.91;100.00;95493.00;5039942;28;20548;-63
2023/08/03 00:59:00;;;;;;;3.08;2.00;;;;;;;18.89;99.19;95499.38;5035173;28;20218;-64
2023/08/03 01:01:26;;;;;;;2.33;1.60;;;;;;;18.93;100.00;95498.94;5042926;28;20525;-62
2023/08/03 01:03:54;;;;;;;4.30;1.98;;;;;;;18.87;99.31;95493.44;5040537;28;20219;-63
2023/08/03 01:06:21;;;;;;;2.60;1.90;;;;;;;18.86;100.00;95493.66;5040159;28;20260;-62
2023/08/03 01:08:47;;;;;;;2.35;1.67;;;;;;;18.84;99.08;95501.94;5042965;28;20223;-63
2023/08/03 01:11:15;;;;;;;1.45;1.35;;;;;;;18.84;99.27;95495.75;5047324;28;20216;-62
2023/08/03 01:13:42;;;;;;;2.53;1.73;;;;;;;18.79;99.30;95496.41;5041421;28;20269;-62
2023/08/03 01:16:09;;;;;;;4.05;1.40;;;;;;;18.72;97.21;95492.16;5036091;28;20223;-63
2023/08/03 01:18:36;;;;;;;3.03;2.08;;;;;;;18.77;96.70;95503.84;5042501;28;20199;-62
2023/08/03 01:21:02;;;;;;;4.10;1.80;;;;;;;18.78;96.81;95513.50;5054842;28;20536;-63
2023/08/03 01:23:30;;;;;;;3.45;1.77;;;;;;;18.78;99.00;95512.69;5053992;28;20227;-63
2023/08/03 01:25:57;;;;;;;5.88;1.27;;;;;;;18.78;95.80;95508.16;5053617;28;20234;-62
2023/08/03 01:28:23;;;;;;;2.38;1.70;;;;;;;18.71;96.68;95512.75;5054397;28;20261;-63
2023/08/03 01:30:50;;;;;;;3.20;2.28;;;;;;;18.69;95.70;95525.56;5054336;28;20261;-62
2023/08/03 01:33:16;;;;;;;3.33;1.90;;;;;;;18.68;95.96;95526.59;5054611;28;20210;-63
2023/08/03 01:35:43;;;;;;;2.60;1.60;;;;;;;18.66;95.95;95528.69;5054708;28;20223;-63
2023/08/03 01:38:12;;;;;;;2.47;1.58;;;;;;;18.62;96.22;95535.50;5054493;28;20207;-64
2023/08/03 01:40:40;;;;;;;3.58;1.67;;;;;;;18.60;95.10;95536.78;5041879;28;20218;-63
2023/08/03 01:43:07;;;;;;;2.92;1.67;;;;;;;18.59;96.21;95527.91;5053726;28;20231;-62
2023/08/03 01:45:34;;;;;;;2.42;1.55;;;;;;;18.63;95.87;95547.03;5053620;28;20210;-62
2023/08/03 01:48:00;;;;;;;2.40;1.50;;;;;;;18.57;95.52;95548.72;5053238;28;20211;-63
2023/08/03 01:50:26;;;;;;;2.30;1.50;;;;;;;18.55;96.27;95560.69;5053625;28;20214;-62
2023/08/03 01:52:53;;;;;;;6.32;1.90;;;;;;;18.51;95.58;95565.66;5053732;28;20257;-64
2023/08/03 01:55:19;;;;;;;2.75;1.67;;;;;;;18.51;94.64;95565.66;5051837;28;20199;-63
2023/08/03 01:57:47;;;;;;;2.45;1.50;;;;;;;18.54;95.20;95575.94;5052741;28;20210;-63
2023/08/03 02:00:14;;;;;;;5.25;2.20;;;;;;;18.47;95.75;95577.00;5054011;28;20207;-62
2023/08/03 02:02:40;;;;;;;3.08;1.88;;;;;;;18.47;96.20;95575.13;5053290;28;20288;-63
2023/08/03 02:05:07;;;;;;;3.65;1.77;;;;;;;18.47;97.31;95579.66;5053876;28;20206;-63
2023/08/03 02:07:45;;;;;;;3.88;1.77;;;;;;;18.42;98.17;95580.34;5053507;28;20204;-63
2023/08/03 02:10:11;;;;;;;2.85;1.80;;;;;;;18.40;97.67;95577.03;5053510;28;20214;-63
2023/08/03 02:12:38;;;;;;;3.22;1.58;;;;;;;18.39;96.58;95578.91;5035351;28;20207;-62
2023/08/03 02:15:07;;;;;;;2.63;1.42;;;;;;;18.36;97.33;95573.97;5038541;28;20222;-63
2023/08/03 02:17:34;;;;;;;2.50;1.48;;;;;;;18.37;96.94;95574.81;5043914;28;20533;-62
2023/08/03 02:20:00;;;;;;;3.90;1.80;;;;;;;18.35;97.62;95571.53;5039689;28;20214;-64
2023/08/03 02:22:27;;;;;;;3.55;1.77;;;;;;;18.32;98.71;95572.78;5048792;28;20223;-63
2023/08/03 02:24:53;;;;;;;3.95;1.90;;;;;;;18.22;98.41;95567.09;5046920;28;20199;-62
2023/08/03 02:27:19;;;;;;;4.60;1.70;;;;;;;18.15;97.65;95568.16;5048250;28;20247;-62
2023/08/03 02:29:46;;;;;;;3.92;2.00;;;;;;;18.13;97.41;95572.91;5040311;28;20206;-62
2023/08/03 02:32:15;;;;;;;4.18;2.45;;;;;;;18.12;97.58;95557.91;5044978;28;20208;-63
2023/08/03 02:34:41;;;;;;;2.25;1.52;;;;;;;18.10;98.47;95573.34;5040444;28;20218;-62
2023/08/03 02:37:08;;;;;;;3.72;1.98;;;;;;;18.14;97.27;95569.22;5047243;28;20203;-62
2023/08/03 02:39:34;;;;;;;4.53;1.70;;;;;;;18.10;98.21;95584.06;5049500;28;20631;-62
2023/08/03 02:42:01;;;;;;;3.22;1.58;;;;;;;18.10;95.32;95584.88;5041008;28;20204;-63
2023/08/03 02:44:27;;;;;;;5.18;1.77;;;;;;;18.06;93.80;95590.88;5033980;28;20212;-62
2023/08/03 02:46:53;;;;;;;2.60;1.67;;;;;;;18.12;89.79;95588.16;5033492;28;20219;-64
2023/08/03 02:49:21;;;;;;;3.17;1.75;;;;;;;18.12;89.38;95584.66;5036301;28;20637;-64
2023/08/03 02:51:48;;;;;;;3.17;1.40;;;;;;;18.14;90.43;95598.66;5039610;28;20633;-63
2023/08/03 02:54:14;;;;;;;3.65;1.75;;;;;;;18.10;90.90;95597.44;5034142;28;20200;-63
2023/08/03 02:56:40;;;;;;;6.15;2.00;;;;;;;18.09;87.56;95603.81;5046165;28;20211;-62
2023/08/03 02:59:07;;;;;;;4.43;2.17;;;;;;;18.12;87.65;95590.81;5053503;28;20203;-63
2023/08/03 03:01:34;;;;;;;5.78;1.90;;;;;;;18.15;87.33;95594.91;5042274;28;20207;-62
2023/08/03 03:04:00;;;;;;;3.58;1.67;;;;;;;18.12;87.48;95601.53;5037645;28;20237;-62
2023/08/03 03:06:28;;;;;;;3.80;1.85;;;;;;;18.11;84.59;95593.69;5051050;28;20544;-63
2023/08/03 03:08:54;;;;;;;6.15;1.88;;;;;;;18.14;83.72;95601.31;5059189;28;20640;-62
2023/08/03 03:11:21;;;;;;;5.38;2.10;;;;;;;18.18;83.66;95602.50;5057740;28;20234;-61
2023/08/03 03:13:48;;;;;;;3.65;1.75;;;;;;;18.15;85.39;95611.78;5067792;28;20197;-63
2023/08/03 03:16:14;;;;;;;7.78;2.40;;;;;;;18.17;81.97;95608.91;5061390;28;20214;-63
2023/08/03 03:18:41;;;;;;;5.18;2.10;;;;;;;18.19;82.03;95617.53;5040326;28;20616;-63
2023/08/03 03:21:07;;;;;;;4.45;2.00;;;;;;;18.18;82.52;95629.25;5044119;28;20592;-63
2023/08/03 03:23:37;;;;;;;3.53;2.00;;;;;;;18.23;83.74;95632.13;5040000;28;20220;-62
2023/08/03 03:26:03;;;;;;;5.13;2.03;;;;;;;18.19;83.25;95636.28;5039607;28;20232;-63
2023/08/03 03:28:30;;;;;;;5.50;2.00;;;;;;;18.16;82.66;95647.41;5043701;28;20219;-63
2023/08/03 03:30:56;;;;;;;4.43;2.10;;;;;;;18.14;84.64;95644.13;5055197;28;20204;-63
2023/08/03 03:33:22;;;;;;;6.32;2.33;;;;;;;18.13;82.58;95645.16;5037826;28;20215;-62
2023/08/03 03:35:49;;;;;;;4.15;1.95;;;;;;;18.16;81.78;95642.06;5037930;28;20310;-63
2023/08/03 03:38:15;;;;;;;5.25;2.10;;;;;;;18.11;81.09;95645.34;5041744;28;20215;-62
2023/08/03 03:40:43;;;;;;;3.45;1.90;;;;;;;18.12;81.64;95648.88;5044090;28;20559;-62
2023/08/03 03:43:09;;;;;;;5.93;2.10;;;;;;;18.07;82.89;95654.84;5041003;28;20707;-62
2023/08/03 03:45:35;;;;;;;5.07;2.00;;;;;;;18.08;81.78;95663.69;5040414;28;20214;-63
2023/08/03 03:48:02;;;;;;;4.72;2.10;;;;;;;18.07;78.78;95668.22;5054323;28;20207;-63
2023/08/03 03:50:28;;;;;;;3.95;1.80;;;;;;;18.09;79.52;95678.72;5041391;28;20215;-63
2023/08/03 03:52:55;;;;;;;6.78;2.30;;;;;;;18.07;80.25;95678.94;5038512;28;20288;-63
2023/08/03 03:55:22;;;;;;;7.85;2.22;;;;;;;18.05;79.13;95674.81;5036468;28;20258;-62
2023/08/03 03:57:50;;;;;;;5.00;1.88;;;;;;;18.00;80.08;95675.47;5037310;28;20223;-62
2023/08/03 04:00:17;;;;;;;4.47;2.15;;;;;;;18.05;80.12;95685.53;5048167;28;20242;-64
2023/08/03 04:02:43;;;;;;;4.15;1.63;;;;;;;17.98;80.18;95687.41;5035580;28;20582;-62
2023/08/03 04:05:10;;;;;;;5.85;2.08;;;;;;;17.95;81.04;95685.16;5039638;28;20214;-64
2023/08/03 04:07:36;;;;;;;3.78;1.67;;;;;;;17.96;81.31;95674.22;5046245;28;20670;-61
2023/08/03 04:10:03;;;;;;;5.63;2.13;;;;;;;17.94;83.20;95676.31;5039656;28;20223;-63
2023/08/03 04:12:29;;;;;;;2.40;1.70;;;;;;;17.94;83.30;95683.50;5045055;28;20226;-62
2023/08/03 04:14:57;;;;;;;4.57;2.05;;;;;;;17.93;83.48;95685.38;5051033;28;20289;-62
2023/08/03 04:17:23;;;;;;;3.28;1.65;;;;;;;17.82;81.87;95684.16;5044012;28;20219;-63
2023/08/03 04:19:50;;;;;;;3.15;1.85;;;;;;;17.80;81.93;95688.91;5043775;28;20208;-63
2023/08/03 04:22:16;;;;;;;7.95;2.03;;;;;;;17.80;82.48;95680.91;5038637;28;20207;-64
2023/08/03 04:24:42;;;;;;;3.17;2.10;;;;;;;17.82;82.10;95673.47;5037667;28;20699;-62
2023/08/03 04:27:09;;;;;;;3.00;1.50;;;;;;;17.77;82.94;95681.31;5047602;28;20240;-63
2023/08/03 04:29:35;;;;;;;4.32;1.90;;;;;;;17.75;81.96;95687.88;5054904;28;20195;-62
2023/08/03 04:32:03;;;;;;;4.82;1.60;;;;;;;17.75;82.14;95686.03;5042360;28;20207;-62
2023/08/03 04:34:30;;;;;;;6.05;1.70;;;;;;;17.75;84.38;95682.53;5037362;28;20204;-62
2023/08/03 04:36:56;;;;;;;2.88;1.40;;;;;;;17.73;84.88;95690.78;5051656;28;20628;-62
2023/08/03 04:39:22;;;;;;;3.00;1.77;;;;;;;17.70;85.25;95691.22;5044791;28;20291;-64
2023/08/03 04:41:49;;;;;;;4.82;1.63;;;;;;;17.71;83.38;95684.81;5035367;28;20203;-63
2023/08/03 04:44:16;;;;;;;3.75;1.42;;;;;;;17.74;82.85;95692.44;5045806;28;20234;-64
2023/08/03 04:46:42;;;;;;;4.22;1.48;;;;;;;17.74;85.55;95707.66;5051395;28;20199;-64
2023/08/03 04:49:12;;;;;;;2.75;1.30;;;;;;;17.76;84.13;95711.75;5044151;28;20636;-62
2023/08/03 04:51:38;;;;;;;6.35;1.63;;;;;;;17.74;87.24;95713.84;5040922;28;20291;-63
2023/08/03 04:54:05;;;;;;;2.28;1.20;;;;;;;17.75;84.00;95715.47;5043934;28;20207;-63
2023/08/03 04:56:31;;;;;;;4.22;1.58;;;;;;;17.79;85.21;95722.03;5040850;28;20203;-62
2023/08/03 04:58:58;;;;;;;3.92;1.17;;;;;;;17.73;85.04;95720.22;5034876;28;20553;-62
2023/08/03 05:01:24;;;;;;;1.60;1.23;;;;;;;17.79;83.53;95731.91;5041394;28;20531;-62
2023/08/03 05:03:52;;;;;;;4.28;1.50;;;;;;;17.78;79.65;95720.38;5038625;28;20235;-62
2023/08/03 05:06:20;;;;;;;2.80;1.33;;;;;;;17.77;78.27;95729.47;5052338;28;20635;-62
2023/08/03 05:08:47;;;;;;;3.13;1.25;;;;;;;17.79;79.16;95723.88;5054757;28;20591;-62
2023/08/03 05:11:14;;;;;;;6.70;1.63;;;;;;;17.80;78.44;95734.38;5048809;28;20635;-62
2023/08/03 05:13:43;;;;;;;4.45;1.23;;;;;;;17.84;78.69;95735.63;5045172;28;20203;-62
2023/08/03 05:16:10;;;;;;;3.35;1.48;;;;;;;17.87;80.22;95735.19;5040695;28;20242;-63
2023/08/03 05:18:36;;;;;;;3.63;1.38;;;;;;;17.85;83.44;95737.22;5046202;28;20210;-63
2023/08/03 05:21:03;;;;;;;3.78;1.48;;;;;;;17.81;80.15;95736.03;5048880;28;20206;-62
2023/08/03 05:23:31;;;;;;;2.97;1.40;;;;;;;17.84;80.56;95734.78;5048789;28;20231;-63
2023/08/03 05:25:58;;;;;;;3.75;1.23;;;;;;;17.83;81.19;95730.47;5040405;28;20235;-63
2023/08/03 05:28:26;;;;;;;4.03;1.08;;;;;;;17.83;82.76;95739.31;5034579;28;20203;-62
2023/08/03 05:30:52;;;;;;;3.17;1.10;;;;;;;17.82;80.41;95744.84;5075274;28;20211;-64
2023/08/03 05:33:19;;;;;;;3.55;1.38;;;;;;;17.89;80.25;95746.47;5034306;28;20214;-63
2023/08/03 05:35:48;;;;;;;2.05;1.13;;;;;;;17.92;82.16;95749.78;5035322;28;20223;-63
2023/08/03 05:38:15;;;;;;;1.83;1.13;;;;;;;18.07;78.69;95745.81;5053984;28;20548;-62
2023/08/03 05:40:43;;;;;;;1.83;1.20;;;;;;;18.31;78.03;95757.69;5042078;28;20214;-62
2023/08/03 05:43:10;;;;;;;2.97;1.30;;;;;;;18.52;77.98;95761.94;5053493;28;20234;-63
2023/08/03 05:45:39;;;;;;;2.85;1.50;;;;;;;18.77;76.46;95758.31;5054246;28;20241;-64
2023/08/03 05:48:12;;;;;;;1.90;1.10;;;;;;;18.91;75.33;95758.22;5054600;28;20234;-63
2023/08/03 05:50:41;;;;;;;2.03;0.93;;;;;;;19.16;76.34;95765.25;5054110;28;20253;-63
2023/08/03 05:53:09;;;;;;;5.15;1.05;;;;;;;19.39;74.31;95757.44;5053747;28;20225;-63
2023/08/03 05:55:35;;;;;;;3.50;1.20;;;;;;;19.53;73.05;95752.78;5054071;28;20294;-62
2023/08/03 05:58:04;;;;;;;3.15;1.23;;;;;;;19.69;73.07;95752.25;5053326;28;20199;-63
2023/08/03 06:00:30;;;;;;;2.80;0.90;;;;;;;19.81;72.42;95755.81;5054285;28;20595;-64
2023/08/03 06:02:57;;;;;;;4.00;1.35;;;;;;;19.97;71.96;95759.81;5053078;28;20199;-62
2023/08/03 06:05:43;;;;;;;3.90;1.40;;;;;;;20.10;71.21;95751.59;5053658;28;20207;-63
2023/08/03 06:08:12;;;;;;;2.53;1.33;;;;;;;20.28;71.76;95756.19;5052653;28;20222;-63
2023/08/03 06:10:38;;;;;;;1.15;0.82;;;;;;;20.48;70.39;95767.50;5049811;28;20238;-63
2023/08/03 06:13:09;;;;;;;3.10;1.00;;;;;;;20.48;68.48;95761.28;5050743;28;20206;-62
2023/08/03 06:15:36;;;;;;;1.92;1.10;;;;;;;20.71;68.97;95754.19;5050123;28;20195;-62
2023/08/03 06:18:04;;;;;;;4.57;1.50;;;;;;;20.80;68.03;95771.59;5051625;28;20537;-63
2023/08/03 06:20:31;;;;;;;2.13;0.77;;;;;;;21.01;69.64;95762.22;5051053;28;20624;-64
2023/08/03 06:22:57;;;;;;;3.40;1.08;;;;;;;20.91;67.71;95771.88;5051396;28;20526;-62
2023/08/03 06:25:24;;;;;;;2.10;0.95;;;;;;;21.12;68.78;95779.47;5038696;28;20309;-61
2023/08/03 06:27:50;;;;;;;1.63;1.00;;;;;;;21.18;67.49;95784.75;5034737;28;20518;-63
2023/08/03 06:30:18;;;;;;;12.18;1.35;;;;;;;21.27;68.28;95767.22;5042910;28;20213;-65
2023/08/03 06:32:45;;;;;;;3.47;1.13;;;;;;;21.32;64.88;95780.00;5052280;28;20207;-61
2023/08/03 06:35:24;;;;;;;1.70;1.20;;;;;;;21.44;64.51;95775.44;5052155;28;20196;-63
2023/08/03 06:37:52;;;;;;;2.33;1.10;;;;;;;21.65;66.24;95774.06;5052595;28;20198;-62
2023/08/03 06:40:19;;;;;;;2.78;1.20;;;;;;;21.90;67.63;95781.91;5040547;28;20204;-62
2023/08/03 06:42:45;;;;;;;2.15;1.02;;;;;;;21.81;63.94;95790.34;5044172;28;20199;-61
2023/08/03 06:45:13;;;;;;;3.13;1.10;;;;;;;22.07;65.66;95788.28;5039579;28;20228;-62
2023/08/03 06:47:41;;;;;;;2.63;1.02;;;;;;;21.98;65.58;95797.75;5047228;28;20211;-63
2023/08/03 06:50:09;;;;;;;2.63;1.05;;;;;;;22.17;65.05;95796.56;5046610;28;20223;-62
2023/08/03 06:52:36;;;;;;;5.72;1.17;;;;;;;22.33;64.67;95807.44;5037116;28;20211;-63
2023/08/03 06:55:02;;;;;;;2.70;1.42;;;;;;;22.25;62.40;95798.88;5037063;28;20203;-62
2023/08/03 06:57:29;;;;;;;1.85;1.10;;;;;;;22.29;64.58;95798.19;5036662;28;20215;-62
2023/08/03 06:59:55;;;;;;;2.65;0.93;;;;;;;22.43;63.06;95803.31;5042053;28;20219;-63
2023/08/03 07:02:22;;;;;;;2.30;1.30;;;;;;;22.62;64.41;95815.59;5036940;28;20254;-62
2023/08/03 07:04:50;;;;;;;2.10;0.90;;;;;;;22.66;62.90;95814.88;5049624;28;20318;-63
2023/08/03 07:07:16;;;;;;;2.40;1.10;;;;;;;22.41;60.46;95811.66;5036960;28;20215;-61
2023/08/03 07:09:48;;;;;;;3.30;1.52;;;;;;;22.23;62.05;95820.69;5038978;28;20199;-63
2023/08/03 07:12:14;;;;;;;2.15;1.20;;;;;;;22.08;61.44;95819.50;5049629;28;20221;-62
2023/08/03 07:14:41;;;;;;;2.83;1.10;;;;;;;22.33;62.90;95806.63;5055886;28;20621;-63
2023/08/03 07:17:07;;;;;;;2.95;1.27;;;;;;;22.50;62.12;95804.00;5046472;28;20243;-63
2023/08/03 07:19:34;;;;;;;2.75;1.20;;;;;;;22.61;60.20;95817.44;5045921;28;20219;-63
2023/08/03 07:22:01;;;;;;;3.35;1.60;;;;;;;22.74;62.42;95811.81;5041917;28;20203;-62
2023/08/03 07:24:28;;;;;;;1.90;1.30;;;;;;;22.60;61.44;95815.00;5039293;28;20228;-63
2023/08/03 07:26:55;;;;;;;5.25;1.23;;;;;;;22.71;61.50;95812.28;5035661;28;20315;-62
2023/08/03 07:29:21;;;;;;;2.70;1.08;;;;;;;22.88;62.64;95804.31;5039793;28;20238;-63
2023/08/03 07:31:49;;;;;;;1.85;1.30;;;;;;;22.98;60.10;95828.75;5052079;28;20203;-63
2023/08/03 07:34:15;;;;;;;2.20;1.38;;;;;;;22.76;60.74;95812.41;5047776;28;20207;-64
2023/08/03 07:36:42;;;;;;;1.33;1.10;;;;;;;23.01;60.78;95812.09;5047459;28;20199;-63
2023/08/03 07:39:10;;;;;;;4.63;1.60;;;;;;;23.18;60.54;95812.13;5044946;28;20203;-65
2023/08/03 07:41:36;;;;;;;2.67;1.10;;;;;;;23.43;58.70;95815.31;5051875;28;20214;-64
2023/08/03 07:44:03;;;;;;;3.58;1.38;;;;;;;23.27;57.00;95806.13;5035330;28;20246;-64
2023/08/03 07:46:30;;;;;;;3.75;1.63;;;;;;;22.97;59.61;95802.00;5036064;28;20243;-65
2023/08/03 07:48:56;;;;;;;4.13;1.92;;;;;;;22.74;58.74;95817.22;5041353;28;20211;-63
2023/08/03 07:51:24;;;;;;;7.63;2.90;;;;;;;22.53;59.04;95812.44;5052624;28;20212;-64
2023/08/03 07:53:51;;;;;;;4.05;1.63;;;;;;;22.61;60.43;95806.69;5036033;28;20637;-65
2023/08/03 07:56:20;;;;;;;3.30;1.65;;;;;;;22.92;58.76;95818.91;5040191;28;20208;-61
2023/08/03 07:58:48;;;;;;;3.38;1.48;;;;;;;22.99;58.53;95806.09;5045809;28;20207;-62
2023/08/03 08:01:15;;;;;;;18.17;7.45;;;;;;;23.09;61.28;95819.81;5035349;28;20633;-64
2023/08/03 08:03:42;;;;;;;73.32;22.58;;;;;;;22.95;57.50;95806.84;5036584;28;20215;-63
2023/08/03 08:06:10;;;;;;;4.95;2.53;;;;;;;23.18;59.94;95812.13;5035761;28;20208;-65
2023/08/03 08:08:37;;;;;;;21.88;8.75;;;;;;;23.22;57.86;95805.19;5035798;28;20547;-61
2023/08/03 08:11:04;;;;;;;3.75;1.75;;;;;;;23.34;59.85;95778.97;5053440;28;20195;-61
2023/08/03 08:13:32;;;;;;;2.08;1.17;;;;;;;23.36;57.93;95787.63;5043630;28;20208;-65
2023/08/03 08:15:59;;;;;;;4.22;1.45;;;;;;;23.76;59.66;95791.06;5043000;28;20234;-64
2023/08/03 08:18:26;;;;;;;2.17;1.02;;;;;;;23.62;57.84;95797.84;5037031;28;20239;-65
2023/08/03 08:20:55;;;;;;;2.60;1.00;;;;;;;23.49;55.78;95798.16;5047929;28;20219;-67
2023/08/03 08:23:22;;;;;;;2.70;1.33;;;;;;;23.53;57.51;95798.47;5037526;28;20294;-65
2023/08/03 08:25:48;;;;;;;2.58;1.33;;;;;;;23.40;57.63;95794.19;5036733;28;20235;-64
2023/08/03 08:28:15;;;;;;;1.95;0.88;;;;;;;23.72;58.21;95802.59;5047073;28;20207;-67
2023/08/03 08:30:44;;;;;;;2.00;0.93;;;;;;;23.40;55.42;95804.97;5036610;28;20242;-62
2023/08/03 08:33:10;;;;;;;1.50;0.90;;;;;;;23.40;54.28;95798.75;5035234;28;20208;-62
2023/08/03 08:35:37;;;;;;;2.05;0.95;;;;;;;23.51;56.05;95795.22;5051167;28;20203;-64
2023/08/03 08:38:05;;;;;;;1.35;0.70;;;;;;;23.26;54.80;95807.19;5042638;28;20208;-64
2023/08/03 08:40:35;;;;;;;2.47;1.13;;;;;;;23.22;55.57;95802.50;5034699;28;20211;-63
2023/08/03 08:43:01;;;;;;;2.28;0.88;;;;;;;23.08;55.37;95809.25;5034673;28;20215;-64
2023/08/03 08:45:28;;;;;;;2.15;0.90;;;;;;;22.87;56.05;95799.13;5046213;28;20735;-62
2023/08/03 08:47:56;;;;;;;1.23;1.02;;;;;;;23.22;56.70;95799.81;5050663;28;20203;-63
2023/08/03 08:50:22;;;;;;;2.75;1.08;;;;;;;23.39;58.29;95814.13;5043235;28;20629;-63
2023/08/03 08:52:51;;;;;;;5.22;0.75;;;;;;;23.32;55.66;95808.06;5048237;28;20272;-62
2023/08/03 08:55:19;;;;;;;2.92;1.10;;;;;;;23.57;57.07;95811.25;5041817;28;20208;-63
2023/08/03 08:57:45;;;;;;;1.85;0.85;;;;;;;23.77;54.39;95808.88;5039555;28;20295;-65
2023/08/03 09:00:12;;;;;;;3.55;0.93;;;;;;;23.74;55.43;95816.63;5035573;28;20212;-62
2023/08/03 09:02:39;;;;;;;2.20;0.80;;;;;;;23.52;55.21;95824.66;5034858;28;20641;-62
2023/08/03 09:05:11;;;;;;;1.45;0.70;;;;;;;23.87;56.04;95835.25;5049760;28;20288;-63
2023/08/03 09:07:37;;;;;;;3.08;0.90;;;;;;;23.90;55.38;95840.16;5042543;28;20212;-61
2023/08/03 09:10:04;;;;;;;2.05;0.90;;;;;;;23.68;54.57;95837.34;5038377;28;20222;-64
2023/08/03 09:12:31;;;;;;;2.63;0.98;;;;;;;23.43;55.88;95836.91;5050897;28;20539;-64
2023/08/03 09:14:58;;;;;;;1.83;0.93;;;;;;;23.74;56.85;95833.66;5052154;28;20210;-62
2023/08/03 09:17:25;;;;;;;1.40;0.80;;;;;;;23.63;56.41;95831.84;5056554;28;20261;-63
2023/08/03 09:19:52;;;;;;;2.85;0.95;;;;;;;23.78;58.34;95840.22;5054065;28;20199;-67
2023/08/03 09:22:22;;;;;;;2.08;1.15;;;;;;;23.56;55.53;95830.41;5043122;28;20219;-62
2023/08/03 09:25:00;;;;;;;1.80;0.82;;;;;;;23.47;55.80;95842.63;5050337;28;20218;-65
2023/08/03 09:27:27;;;;;;;1.75;0.90;;;;;;;23.64;55.22;95833.50;5043361;28;20198;-62
2023/08/03 09:29:59;;;;;;;1.00;0.75;;;;;;;23.84;59.14;95843.84;5053703;28;20218;-64
2023/08/03 09:32:31;;;;;;;0.50;0.50;;;;;;;23.55;55.39;95831.44;5048020;28;20218;-64
2023/08/03 09:34:57;;;;;;;2.05;1.10;;;;;;;23.64;57.88;95838.91;5053983;28;20198;-65
2023/08/03 09:37:33;;;;;;;1.05;0.80;;;;;;;23.87;57.67;95853.31;5053629;28;20213;-63
2023/08/03 09:40:02;;;;;;;2.30;0.82;;;;;;;23.92;57.54;95847.97;5053528;28;20301;-65
2023/08/03 09:42:29;;;;;;;2.42;0.90;;;;;;;24.14;57.57;95838.09;5052293;28;20242;-62
2023/08/03 09:44:57;;;;;;;2.25;0.80;;;;;;;24.37;56.93;95864.94;5053827;28;20223;-62
2023/08/03 09:47:24;;;;;;;2.20;1.45;;;;;;;24.55;56.55;95851.13;5053727;28;20211;-63
2023/08/03 09:49:52;;;;;;;1.63;0.88;;;;;;;24.65;55.91;95858.59;5053357;28;20655;-62
2023/08/03 09:52:24;;;;;;;1.23;0.73;;;;;;;24.21;53.55;95849.56;5043384;28;20207;-64
2023/08/03 09:54:55;;;;;;;1.15;0.73;;;;;;;24.02;54.91;95845.47;5053695;28;20250;-63
2023/08/03 09:57:24;;;;;;;2.88;0.93;;;;;;;23.94;55.54;95845.88;5053598;28;20644;-64
2023/08/03 09:59:53;;;;;;;1.17;0.70;;;;;;;24.32;56.77;95840.53;5055899;28;20207;-63
2023/08/03 10:02:24;;;;;;;2.38;0.80;;;;;;;24.48;58.58;95836.19;5056714;28;20624;-65
2023/08/03 10:04:52;;;;;;;2.22;1.75;;;;;;;24.69;57.46;95829.97;5053422;28;20211;-63
2023/08/03 10:07:20;;;;;;;2.03;1.00;;;;;;;24.69;50.72;95828.06;5056077;28;20213;-66
2023/08/03 10:09:50;;;;;;;0.90;0.70;;;;;;;24.68;56.41;95839.16;5058006;28;20206;-62
2023/08/03 10:12:21;;;;;;;0.43;0.38;;;;;;;24.25;53.03;95842.59;5043300;28;20203;-62
2023/08/03 10:14:51;;;;;;;1.08;0.70;;;;;;;24.41;57.08;95833.63;5045047;28;20607;-62
2023/08/03 10:17:19;;;;;;;2.13;1.00;;;;;;;24.49;54.15;95827.81;5044973;28;20628;-62
2023/08/03 10:19:45;;;;;;;1.88;0.93;;;;;;;24.85;56.02;95831.00;5041698;28;20623;-65
2023/08/03 10:22:12;;;;;;;1.00;0.90;;;;;;;24.92;50.79;95820.81;5041484;28;20207;-63
2023/08/03 10:24:39;;;;;;;1.23;0.77;;;;;;;24.94;53.23;95837.63;5047156;28;20204;-63
2023/08/03 10:27:17;;;;;;;2.10;0.82;;;;;;;24.83;53.57;95830.41;5050795;28;20304;-64
2023/08/03 10:29:55;;;;;;;1.58;1.00;;;;;;;24.71;52.56;95842.16;5043349;28;20278;-64
2023/08/03 10:32:24;;;;;;;0.68;0.60;;;;;;;25.03;52.73;95833.38;5037616;28;20211;-68
2023/08/03 10:34:52;;;;;;;1.20;0.85;;;;;;;25.05;55.37;95833.94;5044997;28;20536;-63
2023/08/03 10:37:19;;;;;;;0.77;0.60;;;;;;;25.15;53.02;95828.66;5051837;28;20533;-64
2023/08/03 10:39:47;;;;;;;2.20;0.60;;;;;;;25.33;53.95;95830.22;5044296;28;20204;-64
2023/08/03 10:42:22;;;;;;;1.40;0.70;;;;;;;25.54;54.77;95832.88;5036775;28;20640;-64
2023/08/03 10:44:48;;;;;;;0.52;0.50;;;;;;;25.84;55.23;95828.81;5042444;28;20233;-63
2023/08/03 10:47:27;;;;;;;1.65;0.80;;;;;;;25.90;50.83;95828.59;5050998;28;20204;-63
2023/08/03 10:49:55;;;;;;;1.80;1.00;;;;;;;25.89;49.00;95834.28;5046953;28;20210;-62
2023/08/03 10:52:25;;;;;;;1.60;0.70;;;;;;;25.64;49.99;95822.16;5039102;28;20527;-63
2023/08/03 10:54:52;;;;;;;2.65;1.30;;;;;;;25.63;51.88;95825.09;5037709;28;20200;-64
2023/08/03 10:57:22;;;;;;;1.35;0.73;;;;;;;25.68;52.02;95827.88;5037089;28;20215;-65
2023/08/03 10:59:50;;;;;;;1.13;0.63;;;;;;;25.78;53.44;95822.53;5050738;28;20295;-65
2023/08/03 11:02:20;;;;;;;3.85;0.98;;;;;;;25.77;50.63;95836.31;5037394;28;20222;-64
2023/08/03 11:04:50;;;;;;;1.48;1.25;;;;;;;25.66;51.60;95827.28;5041515;28;20828;-67
2023/08/03 11:07:19;;;;;;;1.75;1.10;;;;;;;25.53;49.37;95831.25;5047109;28;20211;-63
2023/08/03 11:09:47;;;;;;;1.55;1.10;;;;;;;25.55;51.20;95831.81;5045790;28;20211;-66
2023/08/03 11:12:16;;;;;;;1.00;0.50;;;;;;;25.51;50.39;95822.56;5048905;28;20207;-63
2023/08/03 11:14:44;;;;;;;1.85;0.60;;;;;;;25.70;53.33;95821.13;5038506;28;20211;-63
2023/08/03 11:17:11;;;;;;;1.20;0.82;;;;;;;25.51;51.49;95837.97;5043909;28;20195;-62
2023/08/03 11:19:38;;;;;;;2.15;0.60;;;;;;;25.36;49.80;95838.63;5039174;28;20203;-61
2023/08/03 11:22:08;;;;;;;0.63;0.63;;;;;;;25.29;49.99;95826.38;5041904;28;20547;-65
2023/08/03 11:24:34;;;;;;;1.88;0.70;;;;;;;25.39;50.26;95829.19;5043752;28;20210;-63
2023/08/03 11:27:01;;;;;;;0.88;0.60;;;;;;;25.05;50.09;95833.94;5054341;28;20243;-61
2023/08/03 11:29:28;;;;;;;1.42;0.70;;;;;;;24.98;51.14;95841.44;5037221;28;20636;-61
2023/08/03 11:31:54;;;;;;;1.30;0.90;;;;;;;24.85;52.24;95828.28;5041400;28;20212;-61